sensor_id;sensor_type;location;lat;lon;timestamp;P1;durP1;ratioP1;P2;durP2;ratioP2
31774;SDS011;66189;49.000;11.640;2023-03-03T00:00:56;46.40;;;22.88;;
31774;SDS011;66189;49.000;11.640;2023-03-03T00:02:59;47.20;;;22.60;;
31774;SDS011;66189;49.000;11.640;2023-03-03T00:05:04;46.67;;;21.83;;
31774;SDS011;66189;49.000;11.640;2023-03-03T00:07:05;46.35;;;21.92;;
31774;SDS011;66189;49.000;11.640;2023-03-03T00:09:06;42.53;;;21.55;;
31774;SDS011;66189;49.000;11.640;2023-03-03T00:11:06;45.05;;;22.45;;
31774;SDS011;66189;49.000;11.640;2023-03-03T00:15:19;46.13;;;22.83;;
31774;SDS011;66189;49.000;11.640;2023-03-03T00:17:23;47.40;;;22.42;;
31774;SDS011;66189;49.000;11.640;2023-03-03T00:19:25;48.80;;;23.38;;
31774;SDS011;66189;49.000;11.640;2023-03-03T00:21:29;42.10;;;22.17;;
31774;SDS011;66189;49.000;11.640;2023-03-03T00:23:35;45.25;;;21.85;;
31774;SDS011;66189;49.000;11.640;2023-03-03T00:25:37;43.78;;;22.25;;
31774;SDS011;66189;49.000;11.640;2023-03-03T00:27:42;44.60;;;22.42;;
31774;SDS011;66189;49.000;11.640;2023-03-03T00:29:47;41.78;;;21.27;;
31774;SDS011;66189;49.000;11.640;2023-03-03T00:31:51;49.30;;;22.90;;
31774;SDS011;66189;49.000;11.640;2023-03-03T00:33:52;48.33;;;22.23;;
31774;SDS011;66189;49.000;11.640;2023-03-03T00:35:55;49.58;;;23.05;;
31774;SDS011;66189;49.000;11.640;2023-03-03T00:37:57;45.42;;;23.15;;
31774;SDS011;66189;49.000;11.640;2023-03-03T00:40:12;45.72;;;22.83;;
31774;SDS011;66189;49.000;11.640;2023-03-03T00:42:23;46.10;;;21.95;;
31774;SDS011;66189;49.000;11.640;2023-03-03T00:44:40;44.80;;;21.17;;
31774;SDS011;66189;49.000;11.640;2023-03-03T00:46:41;45.40;;;22.58;;
31774;SDS011;66189;49.000;11.640;2023-03-03T00:48:42;46.78;;;22.92;;
31774;SDS011;66189;49.000;11.640;2023-03-03T00:50:42;46.30;;;22.67;;
31774;SDS011;66189;49.000;11.640;2023-03-03T00:52:44;44.67;;;21.88;;
31774;SDS011;66189;49.000;11.640;2023-03-03T00:54:51;42.85;;;21.33;;
31774;SDS011;66189;49.000;11.640;2023-03-03T00:56:52;46.58;;;21.92;;
31774;SDS011;66189;49.000;11.640;2023-03-03T00:58:53;43.20;;;21.55;;
31774;SDS011;66189;49.000;11.640;2023-03-03T01:00:55;49.42;;;22.25;;
31774;SDS011;66189;49.000;11.640;2023-03-03T01:03:05;46.83;;;21.48;;
31774;SDS011;66189;49.000;11.640;2023-03-03T01:05:12;44.92;;;22.00;;
31774;SDS011;66189;49.000;11.640;2023-03-03T01:07:13;48.88;;;23.13;;
31774;SDS011;66189;49.000;11.640;2023-03-03T01:09:14;40.15;;;21.88;;
31774;SDS011;66189;49.000;11.640;2023-03-03T01:13:19;44.88;;;21.83;;
31774;SDS011;66189;49.000;11.640;2023-03-03T01:15:22;47.78;;;20.42;;
31774;SDS011;66189;49.000;11.640;2023-03-03T01:17:23;45.55;;;22.75;;
31774;SDS011;66189;49.000;11.640;2023-03-03T01:19:24;46.88;;;23.38;;
31774;SDS011;66189;49.000;11.640;2023-03-03T01:21:24;47.75;;;22.88;;
31774;SDS011;66189;49.000;11.640;2023-03-03T01:23:25;46.50;;;22.90;;
31774;SDS011;66189;49.000;11.640;2023-03-03T01:25:26;48.90;;;23.88;;
31774;SDS011;66189;49.000;11.640;2023-03-03T01:27:26;50.45;;;24.05;;
31774;SDS011;66189;49.000;11.640;2023-03-03T01:29:27;47.63;;;23.27;;
31774;SDS011;66189;49.000;11.640;2023-03-03T01:31:28;50.95;;;24.25;;
31774;SDS011;66189;49.000;11.640;2023-03-03T01:33:28;49.17;;;23.55;;
31774;SDS011;66189;49.000;11.640;2023-03-03T01:35:30;45.03;;;22.45;;
31774;SDS011;66189;49.000;11.640;2023-03-03T01:37:32;45.33;;;22.30;;
31774;SDS011;66189;49.000;11.640;2023-03-03T01:39:33;52.30;;;24.35;;
31774;SDS011;66189;49.000;11.640;2023-03-03T01:41:34;48.05;;;22.02;;
31774;SDS011;66189;49.000;11.640;2023-03-03T01:43:41;51.08;;;23.23;;
31774;SDS011;66189;49.000;11.640;2023-03-03T01:50:05;52.80;;;24.17;;
31774;SDS011;66189;49.000;11.640;2023-03-03T01:52:55;55.20;;;23.10;;
31774;SDS011;66189;49.000;11.640;2023-03-03T01:54:41;52.60;;;25.20;;
31774;SDS011;66189;49.000;11.640;2023-03-03T01:56:47;45.22;;;22.27;;
31774;SDS011;66189;49.000;11.640;2023-03-03T01:58:50;44.05;;;22.17;;
31774;SDS011;66189;49.000;11.640;2023-03-03T02:00:56;44.92;;;22.52;;
31774;SDS011;66189;49.000;11.640;2023-03-03T02:03:01;52.22;;;23.90;;
31774;SDS011;66189;49.000;11.640;2023-03-03T02:05:01;52.45;;;23.63;;
31774;SDS011;66189;49.000;11.640;2023-03-03T02:07:04;51.17;;;23.45;;
31774;SDS011;66189;49.000;11.640;2023-03-03T02:09:17;53.05;;;23.42;;
31774;SDS011;66189;49.000;11.640;2023-03-03T02:11:25;47.78;;;23.13;;
31774;SDS011;66189;49.000;11.640;2023-03-03T02:13:28;47.05;;;22.33;;
31774;SDS011;66189;49.000;11.640;2023-03-03T02:15:30;52.38;;;22.83;;
31774;SDS011;66189;49.000;11.640;2023-03-03T02:17:34;51.88;;;23.10;;
31774;SDS011;66189;49.000;11.640;2023-03-03T02:19:41;46.03;;;22.95;;
31774;SDS011;66189;49.000;11.640;2023-03-03T02:21:44;48.03;;;23.17;;
31774;SDS011;66189;49.000;11.640;2023-03-03T02:26:29;47.15;;;22.88;;
31774;SDS011;66189;49.000;11.640;2023-03-03T02:28:37;47.78;;;22.70;;
31774;SDS011;66189;49.000;11.640;2023-03-03T02:30:40;45.15;;;21.17;;
31774;SDS011;66189;49.000;11.640;2023-03-03T02:32:42;52.33;;;24.30;;
31774;SDS011;66189;49.000;11.640;2023-03-03T02:34:44;50.05;;;23.42;;
31774;SDS011;66189;49.000;11.640;2023-03-03T02:36:46;46.55;;;22.20;;
31774;SDS011;66189;49.000;11.640;2023-03-03T02:38:58;46.95;;;23.20;;
31774;SDS011;66189;49.000;11.640;2023-03-03T02:43:33;49.38;;;22.52;;
31774;SDS011;66189;49.000;11.640;2023-03-03T02:45:41;49.15;;;22.95;;
31774;SDS011;66189;49.000;11.640;2023-03-03T02:47:48;47.60;;;22.30;;
31774;SDS011;66189;49.000;11.640;2023-03-03T02:49:51;51.80;;;23.75;;
31774;SDS011;66189;49.000;11.640;2023-03-03T02:51:51;48.70;;;23.02;;
31774;SDS011;66189;49.000;11.640;2023-03-03T02:53:53;41.72;;;21.63;;
31774;SDS011;66189;49.000;11.640;2023-03-03T02:55:53;49.72;;;24.20;;
31774;SDS011;66189;49.000;11.640;2023-03-03T02:57:53;49.55;;;21.35;;
31774;SDS011;66189;49.000;11.640;2023-03-03T02:59:54;48.40;;;22.63;;
31774;SDS011;66189;49.000;11.640;2023-03-03T03:01:54;54.60;;;26.55;;
31774;SDS011;66189;49.000;11.640;2023-03-03T03:03:56;48.88;;;23.85;;
31774;SDS011;66189;49.000;11.640;2023-03-03T03:05:57;46.25;;;23.02;;
31774;SDS011;66189;49.000;11.640;2023-03-03T03:07:58;51.20;;;23.75;;
31774;SDS011;66189;49.000;11.640;2023-03-03T03:09:59;50.33;;;22.63;;
31774;SDS011;66189;49.000;11.640;2023-03-03T03:12:01;45.95;;;22.77;;
31774;SDS011;66189;49.000;11.640;2023-03-03T03:14:05;47.83;;;22.60;;
31774;SDS011;66189;49.000;11.640;2023-03-03T03:16:07;47.33;;;22.70;;
31774;SDS011;66189;49.000;11.640;2023-03-03T03:18:07;46.13;;;22.42;;
31774;SDS011;66189;49.000;11.640;2023-03-03T03:20:08;48.95;;;23.15;;
31774;SDS011;66189;49.000;11.640;2023-03-03T03:22:09;47.53;;;22.85;;
31774;SDS011;66189;49.000;11.640;2023-03-03T03:24:09;47.15;;;22.45;;
31774;SDS011;66189;49.000;11.640;2023-03-03T03:26:14;49.78;;;22.45;;
31774;SDS011;66189;49.000;11.640;2023-03-03T03:28:15;47.75;;;24.08;;
31774;SDS011;66189;49.000;11.640;2023-03-03T03:30:16;45.80;;;22.98;;
31774;SDS011;66189;49.000;11.640;2023-03-03T03:32:21;44.08;;;21.73;;
31774;SDS011;66189;49.000;11.640;2023-03-03T03:34:22;42.20;;;21.60;;
31774;SDS011;66189;49.000;11.640;2023-03-03T03:36:24;47.05;;;22.27;;
31774;SDS011;66189;49.000;11.640;2023-03-03T03:38:26;46.22;;;22.25;;
31774;SDS011;66189;49.000;11.640;2023-03-03T03:40:29;42.30;;;20.67;;
31774;SDS011;66189;49.000;11.640;2023-03-03T03:42:29;45.08;;;23.15;;
31774;SDS011;66189;49.000;11.640;2023-03-03T03:44:30;51.30;;;23.33;;
31774;SDS011;66189;49.000;11.640;2023-03-03T03:46:33;42.67;;;22.30;;
31774;SDS011;66189;49.000;11.640;2023-03-03T03:48:34;49.03;;;20.88;;
31774;SDS011;66189;49.000;11.640;2023-03-03T03:50:37;47.03;;;24.27;;
31774;SDS011;66189;49.000;11.640;2023-03-03T03:52:38;45.17;;;22.00;;
31774;SDS011;66189;49.000;11.640;2023-03-03T03:54:39;50.45;;;22.73;;
31774;SDS011;66189;49.000;11.640;2023-03-03T03:56:39;51.28;;;22.52;;
31774;SDS011;66189;49.000;11.640;2023-03-03T03:58:40;47.38;;;23.08;;
31774;SDS011;66189;49.000;11.640;2023-03-03T04:00:43;44.88;;;22.73;;
31774;SDS011;66189;49.000;11.640;2023-03-03T04:02:45;41.63;;;21.42;;
31774;SDS011;66189;49.000;11.640;2023-03-03T04:04:48;49.58;;;23.00;;
31774;SDS011;66189;49.000;11.640;2023-03-03T04:06:49;43.65;;;22.30;;
31774;SDS011;66189;49.000;11.640;2023-03-03T04:08:49;46.53;;;21.70;;
31774;SDS011;66189;49.000;11.640;2023-03-03T04:10:52;47.45;;;22.23;;
31774;SDS011;66189;49.000;11.640;2023-03-03T04:12:53;42.55;;;21.05;;
31774;SDS011;66189;49.000;11.640;2023-03-03T04:14:54;48.30;;;23.35;;
31774;SDS011;66189;49.000;11.640;2023-03-03T04:16:55;51.63;;;23.58;;
31774;SDS011;66189;49.000;11.640;2023-03-03T04:18:56;47.42;;;23.05;;
31774;SDS011;66189;49.000;11.640;2023-03-03T04:20:57;42.60;;;21.10;;
31774;SDS011;66189;49.000;11.640;2023-03-03T04:22:59;52.08;;;24.30;;
31774;SDS011;66189;49.000;11.640;2023-03-03T04:25:00;47.28;;;22.75;;
31774;SDS011;66189;49.000;11.640;2023-03-03T04:27:06;47.15;;;23.00;;
31774;SDS011;66189;49.000;11.640;2023-03-03T04:29:08;47.65;;;22.67;;
31774;SDS011;66189;49.000;11.640;2023-03-03T04:31:09;52.47;;;24.52;;
31774;SDS011;66189;49.000;11.640;2023-03-03T04:33:10;47.83;;;22.50;;
31774;SDS011;66189;49.000;11.640;2023-03-03T04:35:13;48.55;;;23.75;;
31774;SDS011;66189;49.000;11.640;2023-03-03T04:37:16;52.03;;;23.75;;
31774;SDS011;66189;49.000;11.640;2023-03-03T04:39:16;51.00;;;24.77;;
31774;SDS011;66189;49.000;11.640;2023-03-03T04:41:17;52.60;;;24.17;;
31774;SDS011;66189;49.000;11.640;2023-03-03T04:43:18;51.88;;;24.33;;
31774;SDS011;66189;49.000;11.640;2023-03-03T04:45:20;48.95;;;23.40;;
31774;SDS011;66189;49.000;11.640;2023-03-03T04:47:22;46.63;;;23.63;;
31774;SDS011;66189;49.000;11.640;2023-03-03T04:49:22;48.55;;;24.15;;
31774;SDS011;66189;49.000;11.640;2023-03-03T04:51:23;50.92;;;24.27;;
31774;SDS011;66189;49.000;11.640;2023-03-03T04:53:23;45.47;;;23.08;;
31774;SDS011;66189;49.000;11.640;2023-03-03T04:55:25;51.60;;;24.65;;
31774;SDS011;66189;49.000;11.640;2023-03-03T04:57:25;51.40;;;24.83;;
31774;SDS011;66189;49.000;11.640;2023-03-03T04:59:27;49.83;;;23.27;;
31774;SDS011;66189;49.000;11.640;2023-03-03T05:01:27;53.53;;;22.55;;
31774;SDS011;66189;49.000;11.640;2023-03-03T05:03:29;47.95;;;23.17;;
31774;SDS011;66189;49.000;11.640;2023-03-03T05:05:29;46.35;;;22.95;;
31774;SDS011;66189;49.000;11.640;2023-03-03T05:07:30;49.78;;;24.27;;
31774;SDS011;66189;49.000;11.640;2023-03-03T05:09:30;53.63;;;25.38;;
31774;SDS011;66189;49.000;11.640;2023-03-03T05:11:30;53.47;;;23.48;;
31774;SDS011;66189;49.000;11.640;2023-03-03T05:13:31;48.22;;;23.50;;
31774;SDS011;66189;49.000;11.640;2023-03-03T05:15:32;54.72;;;23.50;;
31774;SDS011;66189;49.000;11.640;2023-03-03T05:17:32;54.33;;;23.52;;
31774;SDS011;66189;49.000;11.640;2023-03-03T05:19:32;43.53;;;22.05;;
31774;SDS011;66189;49.000;11.640;2023-03-03T05:21:34;49.50;;;22.70;;
31774;SDS011;66189;49.000;11.640;2023-03-03T05:23:34;44.05;;;21.90;;
31774;SDS011;66189;49.000;11.640;2023-03-03T05:25:34;43.78;;;22.23;;
31774;SDS011;66189;49.000;11.640;2023-03-03T05:27:35;53.45;;;24.40;;
31774;SDS011;66189;49.000;11.640;2023-03-03T05:29:35;48.00;;;23.45;;
31774;SDS011;66189;49.000;11.640;2023-03-03T05:31:36;46.50;;;22.55;;
31774;SDS011;66189;49.000;11.640;2023-03-03T05:33:36;49.92;;;23.20;;
31774;SDS011;66189;49.000;11.640;2023-03-03T05:35:37;43.53;;;21.35;;
31774;SDS011;66189;49.000;11.640;2023-03-03T05:37:37;42.45;;;20.20;;
31774;SDS011;66189;49.000;11.640;2023-03-03T05:39:41;42.35;;;21.40;;
31774;SDS011;66189;49.000;11.640;2023-03-03T05:41:43;48.03;;;21.77;;
31774;SDS011;66189;49.000;11.640;2023-03-03T05:43:44;48.17;;;22.90;;
31774;SDS011;66189;49.000;11.640;2023-03-03T05:45:44;49.38;;;21.70;;
31774;SDS011;66189;49.000;11.640;2023-03-03T05:47:45;47.75;;;22.35;;
31774;SDS011;66189;49.000;11.640;2023-03-03T05:49:48;48.42;;;21.35;;
31774;SDS011;66189;49.000;11.640;2023-03-03T05:51:48;50.03;;;21.88;;
31774;SDS011;66189;49.000;11.640;2023-03-03T05:53:49;44.78;;;21.42;;
31774;SDS011;66189;49.000;11.640;2023-03-03T05:55:49;50.08;;;21.98;;
31774;SDS011;66189;49.000;11.640;2023-03-03T05:57:50;44.53;;;21.10;;
31774;SDS011;66189;49.000;11.640;2023-03-03T05:59:50;43.55;;;21.15;;
31774;SDS011;66189;49.000;11.640;2023-03-03T06:01:51;46.40;;;22.00;;
31774;SDS011;66189;49.000;11.640;2023-03-03T06:03:51;43.83;;;21.30;;
31774;SDS011;66189;49.000;11.640;2023-03-03T06:05:55;43.88;;;20.05;;
31774;SDS011;66189;49.000;11.640;2023-03-03T06:07:55;48.28;;;21.92;;
31774;SDS011;66189;49.000;11.640;2023-03-03T06:09:55;45.60;;;21.75;;
31774;SDS011;66189;49.000;11.640;2023-03-03T06:11:58;43.70;;;21.15;;
31774;SDS011;66189;49.000;11.640;2023-03-03T06:13:58;47.63;;;22.05;;
31774;SDS011;66189;49.000;11.640;2023-03-03T06:15:59;44.42;;;21.27;;
31774;SDS011;66189;49.000;11.640;2023-03-03T06:17:59;42.70;;;21.23;;
31774;SDS011;66189;49.000;11.640;2023-03-03T06:19:59;47.17;;;21.52;;
31774;SDS011;66189;49.000;11.640;2023-03-03T06:22:00;43.42;;;21.63;;
31774;SDS011;66189;49.000;11.640;2023-03-03T06:24:03;45.72;;;20.85;;
31774;SDS011;66189;49.000;11.640;2023-03-03T06:26:04;38.53;;;19.23;;
31774;SDS011;66189;49.000;11.640;2023-03-03T06:28:04;46.45;;;20.95;;
31774;SDS011;66189;49.000;11.640;2023-03-03T06:30:05;40.55;;;19.45;;
31774;SDS011;66189;49.000;11.640;2023-03-03T06:32:06;43.50;;;19.27;;
31774;SDS011;66189;49.000;11.640;2023-03-03T06:34:06;42.60;;;20.30;;
31774;SDS011;66189;49.000;11.640;2023-03-03T06:36:07;39.47;;;19.38;;
31774;SDS011;66189;49.000;11.640;2023-03-03T06:38:07;41.67;;;19.67;;
31774;SDS011;66189;49.000;11.640;2023-03-03T06:40:08;38.22;;;19.17;;
31774;SDS011;66189;49.000;11.640;2023-03-03T06:42:09;40.90;;;20.25;;
31774;SDS011;66189;49.000;11.640;2023-03-03T06:44:09;39.67;;;20.48;;
31774;SDS011;66189;49.000;11.640;2023-03-03T06:46:11;39.63;;;19.42;;
31774;SDS011;66189;49.000;11.640;2023-03-03T06:48:11;39.75;;;20.05;;
31774;SDS011;66189;49.000;11.640;2023-03-03T06:50:11;293.02;;;135.02;;
31774;SDS011;66189;49.000;11.640;2023-03-03T06:52:13;181.65;;;79.15;;
31774;SDS011;66189;49.000;11.640;2023-03-03T06:54:20;82.57;;;39.47;;
31774;SDS011;66189;49.000;11.640;2023-03-03T06:56:35;49.40;;;23.95;;
31774;SDS011;66189;49.000;11.640;2023-03-03T06:58:36;42.55;;;21.48;;
31774;SDS011;66189;49.000;11.640;2023-03-03T07:00:36;37.78;;;18.73;;
31774;SDS011;66189;49.000;11.640;2023-03-03T07:02:37;40.13;;;18.80;;
31774;SDS011;66189;49.000;11.640;2023-03-03T07:04:37;39.42;;;18.98;;
31774;SDS011;66189;49.000;11.640;2023-03-03T07:06:38;40.88;;;20.40;;
31774;SDS011;66189;49.000;11.640;2023-03-03T07:08:38;39.38;;;19.48;;
31774;SDS011;66189;49.000;11.640;2023-03-03T07:10:40;37.95;;;18.27;;
31774;SDS011;66189;49.000;11.640;2023-03-03T07:12:40;40.25;;;19.30;;
31774;SDS011;66189;49.000;11.640;2023-03-03T07:14:42;43.03;;;20.20;;
31774;SDS011;66189;49.000;11.640;2023-03-03T07:16:44;43.80;;;20.00;;
31774;SDS011;66189;49.000;11.640;2023-03-03T07:20:45;40.97;;;19.45;;
31774;SDS011;66189;49.000;11.640;2023-03-03T07:22:46;44.10;;;19.48;;
31774;SDS011;66189;49.000;11.640;2023-03-03T07:24:48;41.75;;;18.92;;
31774;SDS011;66189;49.000;11.640;2023-03-03T07:26:50;41.10;;;18.83;;
31774;SDS011;66189;49.000;11.640;2023-03-03T07:28:52;39.95;;;19.27;;
31774;SDS011;66189;49.000;11.640;2023-03-03T07:30:55;45.95;;;21.15;;
31774;SDS011;66189;49.000;11.640;2023-03-03T07:32:57;195.13;;;91.22;;
31774;SDS011;66189;49.000;11.640;2023-03-03T07:34:58;84.50;;;37.30;;
31774;SDS011;66189;49.000;11.640;2023-03-03T07:37:00;45.25;;;21.63;;
31774;SDS011;66189;49.000;11.640;2023-03-03T07:41:33;43.22;;;19.15;;
31774;SDS011;66189;49.000;11.640;2023-03-03T07:43:37;39.63;;;18.08;;
31774;SDS011;66189;49.000;11.640;2023-03-03T07:45:42;40.20;;;18.65;;
31774;SDS011;66189;49.000;11.640;2023-03-03T07:47:43;36.75;;;18.83;;
31774;SDS011;66189;49.000;11.640;2023-03-03T07:49:43;44.17;;;20.25;;
31774;SDS011;66189;49.000;11.640;2023-03-03T07:51:45;310.02;;;149.88;;
31774;SDS011;66189;49.000;11.640;2023-03-03T07:53:47;151.98;;;70.80;;
31774;SDS011;66189;49.000;11.640;2023-03-03T07:55:48;45.35;;;21.75;;
31774;SDS011;66189;49.000;11.640;2023-03-03T07:57:49;40.80;;;20.17;;
31774;SDS011;66189;49.000;11.640;2023-03-03T08:02:22;39.90;;;20.80;;
31774;SDS011;66189;49.000;11.640;2023-03-03T08:04:40;42.88;;;19.90;;
31774;SDS011;66189;49.000;11.640;2023-03-03T08:06:44;40.42;;;19.77;;
31774;SDS011;66189;49.000;11.640;2023-03-03T08:08:47;39.45;;;19.70;;
31774;SDS011;66189;49.000;11.640;2023-03-03T08:10:49;37.80;;;18.30;;
31774;SDS011;66189;49.000;11.640;2023-03-03T08:12:51;41.05;;;19.45;;
31774;SDS011;66189;49.000;11.640;2023-03-03T08:14:52;41.30;;;20.48;;
31774;SDS011;66189;49.000;11.640;2023-03-03T08:16:54;42.72;;;19.10;;
31774;SDS011;66189;49.000;11.640;2023-03-03T08:18:56;36.45;;;18.73;;
31774;SDS011;66189;49.000;11.640;2023-03-03T08:21:22;142.20;;;62.88;;
31774;SDS011;66189;49.000;11.640;2023-03-03T08:23:23;189.88;;;88.05;;
31774;SDS011;66189;49.000;11.640;2023-03-03T08:25:23;42.10;;;21.75;;
31774;SDS011;66189;49.000;11.640;2023-03-03T08:27:24;40.38;;;20.00;;
31774;SDS011;66189;49.000;11.640;2023-03-03T08:29:24;41.03;;;20.08;;
31774;SDS011;66189;49.000;11.640;2023-03-03T08:31:25;35.60;;;18.38;;
31774;SDS011;66189;49.000;11.640;2023-03-03T08:33:26;40.45;;;19.10;;
31774;SDS011;66189;49.000;11.640;2023-03-03T08:35:26;34.08;;;18.65;;
31774;SDS011;66189;49.000;11.640;2023-03-03T08:39:27;40.67;;;19.53;;
31774;SDS011;66189;49.000;11.640;2023-03-03T08:41:27;43.90;;;20.45;;
31774;SDS011;66189;49.000;11.640;2023-03-03T08:43:28;41.13;;;19.48;;
31774;SDS011;66189;49.000;11.640;2023-03-03T08:47:29;37.53;;;18.97;;
31774;SDS011;66189;49.000;11.640;2023-03-03T08:51:30;39.70;;;19.53;;
31774;SDS011;66189;49.000;11.640;2023-03-03T08:53:32;39.80;;;20.40;;
31774;SDS011;66189;49.000;11.640;2023-03-03T08:55:35;36.90;;;20.13;;
31774;SDS011;66189;49.000;11.640;2023-03-03T08:57:36;42.28;;;18.67;;
31774;SDS011;66189;49.000;11.640;2023-03-03T08:59:38;40.65;;;19.13;;
31774;SDS011;66189;49.000;11.640;2023-03-03T09:01:38;37.10;;;19.00;;
31774;SDS011;66189;49.000;11.640;2023-03-03T09:05:39;39.63;;;18.90;;
31774;SDS011;66189;49.000;11.640;2023-03-03T09:09:41;40.72;;;20.00;;
31774;SDS011;66189;49.000;11.640;2023-03-03T09:13:43;38.17;;;19.70;;
31774;SDS011;66189;49.000;11.640;2023-03-03T09:15:44;35.58;;;18.05;;
31774;SDS011;66189;49.000;11.640;2023-03-03T09:17:45;36.50;;;18.55;;
31774;SDS011;66189;49.000;11.640;2023-03-03T09:19:48;36.78;;;18.65;;
31774;SDS011;66189;49.000;11.640;2023-03-03T09:21:53;39.38;;;18.95;;
31774;SDS011;66189;49.000;11.640;2023-03-03T09:23:56;37.50;;;17.80;;
31774;SDS011;66189;49.000;11.640;2023-03-03T09:28:29;35.40;;;19.65;;
31774;SDS011;66189;49.000;11.640;2023-03-03T09:32:36;36.03;;;18.52;;
31774;SDS011;66189;49.000;11.640;2023-03-03T09:34:42;37.78;;;19.63;;
31774;SDS011;66189;49.000;11.640;2023-03-03T09:36:42;38.33;;;18.45;;
31774;SDS011;66189;49.000;11.640;2023-03-03T09:40:49;39.35;;;18.95;;
31774;SDS011;66189;49.000;11.640;2023-03-03T09:45:25;35.72;;;18.58;;
31774;SDS011;66189;49.000;11.640;2023-03-03T09:50:26;33.83;;;18.27;;
31774;SDS011;66189;49.000;11.640;2023-03-03T10:04:53;36.17;;;19.48;;
31774;SDS011;66189;49.000;11.640;2023-03-03T10:16:18;36.15;;;19.05;;
31774;SDS011;66189;49.000;11.640;2023-03-03T10:20:56;35.70;;;18.48;;
31774;SDS011;66189;49.000;11.640;2023-03-03T10:23:09;39.33;;;20.83;;
31774;SDS011;66189;49.000;11.640;2023-03-03T10:25:20;101.47;;;54.55;;
31774;SDS011;66189;49.000;11.640;2023-03-03T10:30:07;36.00;;;19.27;;
31774;SDS011;66189;49.000;11.640;2023-03-03T10:34:43;38.67;;;19.50;;
31774;SDS011;66189;49.000;11.640;2023-03-03T10:39:26;35.55;;;19.58;;
31774;SDS011;66189;49.000;11.640;2023-03-03T10:41:49;34.42;;;19.50;;
31774;SDS011;66189;49.000;11.640;2023-03-03T10:44:20;36.42;;;19.02;;
31774;SDS011;66189;49.000;11.640;2023-03-03T10:53:33;30.27;;;17.95;;
31774;SDS011;66189;49.000;11.640;2023-03-03T10:56:00;31.55;;;18.00;;
31774;SDS011;66189;49.000;11.640;2023-03-03T11:00:26;122.57;;;66.15;;
31774;SDS011;66189;49.000;11.640;2023-03-03T11:05:08;33.13;;;18.17;;
31774;SDS011;66189;49.000;11.640;2023-03-03T11:09:55;35.25;;;18.50;;
31774;SDS011;66189;49.000;11.640;2023-03-03T11:17:16;36.58;;;16.83;;
31774;SDS011;66189;49.000;11.640;2023-03-03T11:21:41;44.95;;;23.13;;
31774;SDS011;66189;49.000;11.640;2023-03-03T11:26:26;31.75;;;18.02;;
31774;SDS011;66189;49.000;11.640;2023-03-03T11:28:43;34.10;;;19.67;;
31774;SDS011;66189;49.000;11.640;2023-03-03T11:31:17;38.53;;;18.25;;
31774;SDS011;66189;49.000;11.640;2023-03-03T11:33:30;32.85;;;18.42;;
31774;SDS011;66189;49.000;11.640;2023-03-03T11:39:56;31.00;;;18.05;;
31774;SDS011;66189;49.000;11.640;2023-03-03T11:47:51;32.80;;;18.05;;
31774;SDS011;66189;49.000;11.640;2023-03-03T11:49:59;39.78;;;19.08;;
31774;SDS011;66189;49.000;11.640;2023-03-03T11:54:21;32.40;;;17.60;;
31774;SDS011;66189;49.000;11.640;2023-03-03T11:58:41;33.40;;;18.83;;
31774;SDS011;66189;49.000;11.640;2023-03-03T12:05:48;32.05;;;17.88;;
31774;SDS011;66189;49.000;11.640;2023-03-03T12:07:56;31.27;;;17.85;;
31774;SDS011;66189;49.000;11.640;2023-03-03T12:10:23;35.78;;;18.85;;
31774;SDS011;66189;49.000;11.640;2023-03-03T12:12:30;34.47;;;17.15;;
31774;SDS011;66189;49.000;11.640;2023-03-03T12:14:52;62.85;;;32.80;;
31774;SDS011;66189;49.000;11.640;2023-03-03T12:26:58;34.28;;;17.75;;
31774;SDS011;66189;49.000;11.640;2023-03-03T12:31:43;29.42;;;16.70;;
31774;SDS011;66189;49.000;11.640;2023-03-03T12:40:49;30.73;;;17.33;;
31774;SDS011;66189;49.000;11.640;2023-03-03T12:43:11;36.15;;;18.00;;
31774;SDS011;66189;49.000;11.640;2023-03-03T12:50:23;30.70;;;16.88;;
31774;SDS011;66189;49.000;11.640;2023-03-03T12:52:39;35.42;;;17.88;;
31774;SDS011;66189;49.000;11.640;2023-03-03T13:06:31;32.97;;;17.20;;
31774;SDS011;66189;49.000;11.640;2023-03-03T13:08:45;28.63;;;16.75;;
31774;SDS011;66189;49.000;11.640;2023-03-03T13:15:47;29.40;;;16.77;;
31774;SDS011;66189;49.000;11.640;2023-03-03T13:18:18;29.65;;;17.23;;
31774;SDS011;66189;49.000;11.640;2023-03-03T13:22:38;30.55;;;17.45;;
31774;SDS011;66189;49.000;11.640;2023-03-03T13:27:29;30.75;;;16.35;;
31774;SDS011;66189;49.000;11.640;2023-03-03T13:29:39;29.83;;;16.50;;
31774;SDS011;66189;49.000;11.640;2023-03-03T13:36:50;32.17;;;15.57;;
31774;SDS011;66189;49.000;11.640;2023-03-03T13:38:56;30.17;;;15.35;;
31774;SDS011;66189;49.000;11.640;2023-03-03T13:41:48;32.22;;;16.80;;
31774;SDS011;66189;49.000;11.640;2023-03-03T13:43:45;30.17;;;16.58;;
31774;SDS011;66189;49.000;11.640;2023-03-03T13:48:14;33.47;;;16.85;;
31774;SDS011;66189;49.000;11.640;2023-03-03T13:50:31;33.22;;;17.13;;
31774;SDS011;66189;49.000;11.640;2023-03-03T13:52:45;28.98;;;16.35;;
31774;SDS011;66189;49.000;11.640;2023-03-03T14:02:48;29.85;;;15.70;;
31774;SDS011;66189;49.000;11.640;2023-03-03T14:05:02;30.77;;;16.05;;
31774;SDS011;66189;49.000;11.640;2023-03-03T14:07:10;27.80;;;14.82;;
31774;SDS011;66189;49.000;11.640;2023-03-03T14:11:22;29.95;;;16.25;;
31774;SDS011;66189;49.000;11.640;2023-03-03T14:13:37;34.97;;;17.00;;
31774;SDS011;66189;49.000;11.640;2023-03-03T14:18:28;31.42;;;18.30;;
31774;SDS011;66189;49.000;11.640;2023-03-03T14:20:34;31.13;;;15.73;;
31774;SDS011;66189;49.000;11.640;2023-03-03T14:22:52;31.10;;;15.25;;
31774;SDS011;66189;49.000;11.640;2023-03-03T14:25:03;27.60;;;15.05;;
31774;SDS011;66189;49.000;11.640;2023-03-03T14:27:13;30.40;;;16.77;;
31774;SDS011;66189;49.000;11.640;2023-03-03T14:31:40;30.65;;;16.05;;
31774;SDS011;66189;49.000;11.640;2023-03-03T14:33:43;32.72;;;16.80;;
31774;SDS011;66189;49.000;11.640;2023-03-03T14:38:00;27.15;;;15.95;;
31774;SDS011;66189;49.000;11.640;2023-03-03T14:42:12;36.65;;;16.17;;
31774;SDS011;66189;49.000;11.640;2023-03-03T14:44:35;29.48;;;16.80;;
31774;SDS011;66189;49.000;11.640;2023-03-03T14:46:38;27.58;;;16.08;;
31774;SDS011;66189;49.000;11.640;2023-03-03T14:48:48;30.40;;;16.98;;
31774;SDS011;66189;49.000;11.640;2023-03-03T14:50:51;31.50;;;16.33;;
31774;SDS011;66189;49.000;11.640;2023-03-03T14:53:09;32.08;;;17.20;;
31774;SDS011;66189;49.000;11.640;2023-03-03T14:59:40;263.92;;;151.23;;
31774;SDS011;66189;49.000;11.640;2023-03-03T15:02:39;72.97;;;42.80;;
31774;SDS011;66189;49.000;11.640;2023-03-03T15:04:30;208.90;;;116.70;;
31774;SDS011;66189;49.000;11.640;2023-03-03T15:06:35;567.33;;;302.58;;
31774;SDS011;66189;49.000;11.640;2023-03-03T15:08:36;589.45;;;286.02;;
31774;SDS011;66189;49.000;11.640;2023-03-03T15:10:43;348.48;;;145.30;;
31774;SDS011;66189;49.000;11.640;2023-03-03T15:12:44;433.83;;;171.80;;
31774;SDS011;66189;49.000;11.640;2023-03-03T15:14:49;191.13;;;90.20;;